Time;durP1;ratioP1;P1;durP2;ratioP2;P2;SDS_P1;SDS_P2;PMS_P1;PMS_P2;Temp;Humidity;BMP_temperature;BMP_pressure;BME280_temperature;BME280_humidity;BME280_pressure;Samples;Min_cycle;Max_cycle;Signal;HPM_P1;HPM_P2
2023/12/09 00:00:19;;;;;;;19.20;9.80;;;7.90;89.80;;;;;;5073446;28;20790;-76
2023/12/09 00:02:45;;;;;;;20.60;10.70;;;7.90;90.30;;;;;;5072108;28;20896;-77
2023/12/09 00:05:10;;;;;;;17.80;9.40;;;7.90;90.40;;;;;;5077638;28;20421;-77
2023/12/09 00:07:36;;;;;;;17.55;8.93;;;8.00;90.60;;;;;;5077992;28;20411;-77
2023/12/09 00:10:02;;;;;;;17.42;8.63;;;8.00;88.30;;;;;;5072719;28;20454;-75
2023/12/09 00:12:28;;;;;;;20.30;9.50;;;8.10;86.50;;;;;;5071303;28;20467;-77
2023/12/09 00:14:53;;;;;;;19.10;9.13;;;8.10;85.50;;;;;;5071893;28;20801;-77
2023/12/09 00:17:19;;;;;;;19.97;9.03;;;8.00;87.30;;;;;;5071240;28;20529;-77
2023/12/09 00:19:44;;;;;;;20.83;9.30;;;8.00;86.60;;;;;;5071894;28;20922;-76
2023/12/09 00:22:10;;;;;;;18.67;9.20;;;8.00;87.50;;;;;;5053106;28;20958;-76
2023/12/09 00:24:35;;;;;;;15.07;8.32;;;8.00;88.30;;;;;;5071409;28;20388;-76
2023/12/09 00:27:01;;;;;;;21.83;11.30;;;8.00;88.80;;;;;;5071018;28;20429;-76
2023/12/09 00:29:26;;;;;;;21.00;9.13;;;7.90;89.20;;;;;;5071331;28;20383;-76
2023/12/09 00:31:52;;;;;;;18.08;8.50;;;7.90;89.80;;;;;;5053122;28;20456;-77
2023/12/09 00:34:18;;;;;;;15.30;8.38;;;7.90;90.50;;;;;;5071147;28;20384;-77
2023/12/09 00:36:43;;;;;;;18.42;8.65;;;7.90;90.50;;;;;;5071266;28;20820;-77
2023/12/09 00:39:09;;;;;;;17.30;8.90;;;7.90;90.00;;;;;;5070768;28;20391;-77
2023/12/09 00:41:35;;;;;;;19.67;8.38;;;7.80;90.30;;;;;;5071236;28;20411;-77
2023/12/09 00:44:00;;;;;;;15.60;8.73;;;7.90;90.90;;;;;;5053796;28;20399;-77
2023/12/09 00:46:26;;;;;;;18.27;8.70;;;7.90;90.00;;;;;;5071182;28;20394;-77
2023/12/09 00:48:51;;;;;;;22.70;9.10;;;7.80;91.40;;;;;;5071058;28;20384;-76
2023/12/09 00:51:17;;;;;;;17.58;8.20;;;7.80;91.90;;;;;;5071702;28;20419;-77
2023/12/09 00:53:42;;;;;;;20.50;9.10;;;7.70;92.00;;;;;;5071288;28;20715;-76
2023/12/09 00:56:08;;;;;;;19.87;8.20;;;7.60;93.00;;;;;;5071701;28;20433;-76
2023/12/09 00:58:34;;;;;;;16.40;8.75;;;7.50;92.90;;;;;;5071262;28;20885;-77
2023/12/09 01:01:00;;;;;;;22.85;8.70;;;7.40;95.40;;;;;;5071155;28;20455;-77
2023/12/09 01:03:25;;;;;;;17.02;8.40;;;7.30;97.40;;;;;;5070705;28;20376;-77
2023/12/09 01:05:51;;;;;;;17.25;9.60;;;7.20;99.50;;;;;;5072467;28;20379;-77
2023/12/09 01:08:16;;;;;;;18.67;8.20;;;7.30;99.90;;;;;;5071426;28;20402;-76
2023/12/09 01:10:42;;;;;;;19.23;8.50;;;7.40;97.60;;;;;;5071270;28;20387;-77
2023/12/09 01:13:08;;;;;;;20.93;8.90;;;7.40;97.10;;;;;;5070611;28;20388;-77
2023/12/09 01:15:33;;;;;;;17.42;8.50;;;7.30;97.90;;;;;;5070645;28;20471;-77
2023/12/09 01:17:59;;;;;;;18.63;8.73;;;7.20;99.70;;;;;;5072212;28;20538;-77
2023/12/09 01:20:24;;;;;;;19.75;8.30;;;7.20;99.90;;;;;;5074970;28;20489;-75
2023/12/09 01:22:50;;;;;;;18.83;8.80;;;7.20;99.90;;;;;;5074915;28;20407;-76
2023/12/09 01:25:16;;;;;;;18.37;7.80;;;7.30;99.90;;;;;;5076269;28;20862;-76
2023/12/09 01:27:41;;;;;;;19.80;9.90;;;7.30;99.90;;;;;;5075881;28;20379;-77
2023/12/09 01:30:07;;;;;;;16.80;7.43;;;7.30;99.80;;;;;;5077165;28;20375;-77
2023/12/09 01:32:33;;;;;;;17.63;7.70;;;7.20;99.90;;;;;;5058321;28;20399;-77
2023/12/09 01:34:58;;;;;;;14.65;7.13;;;7.20;99.90;;;;;;5075633;28;20384;-76
2023/12/09 01:37:24;;;;;;;15.95;8.18;;;7.20;99.90;;;;;;5075070;28;20375;-77
2023/12/09 01:39:50;;;;;;;15.15;6.97;;;7.20;99.90;;;;;;5075441;28;20390;-76
2023/12/09 01:42:15;;;;;;;19.33;7.80;;;7.30;99.90;;;;;;5074631;28;20404;-76
2023/12/09 01:44:41;;;;;;;15.32;7.45;;;7.40;99.90;;;;;;5076602;28;20388;-77
2023/12/09 01:47:07;;;;;;;21.77;7.72;;;7.40;99.90;;;;;;5074646;28;20400;-77
2023/12/09 01:49:33;;;;;;;16.98;7.10;;;7.40;99.90;;;;;;5074872;28;20403;-76
2023/12/09 01:52:00;;;;;;;16.35;8.30;;;7.40;97.70;;;;;;5075350;28;20469;-77
2023/12/09 01:54:26;;;;;;;16.60;7.75;;;7.40;96.90;;;;;;5074359;28;20383;-75
2023/12/09 01:56:52;;;;;;;14.93;7.13;;;7.30;98.90;;;;;;5076795;28;20384;-77
2023/12/09 01:59:18;;;;;;;17.25;7.60;;;7.30;96.60;;;;;;5078373;28;20806;-79
2023/12/09 02:01:44;;;;;;;17.10;6.97;;;7.30;99.30;;;;;;5059462;28;20449;-77
2023/12/09 02:04:10;;;;;;;18.98;6.90;;;7.40;95.70;;;;;;5078272;28;20368;-76
2023/12/09 02:06:36;;;;;;;20.75;7.28;;;7.40;96.40;;;;;;5078560;28;20429;-76
2023/12/09 02:09:01;;;;;;;15.23;6.67;;;7.40;97.50;;;;;;5079659;28;20383;-78
2023/12/09 02:11:50;;;;;;;17.60;7.20;;;7.40;97.60;;;;;;5078224;28;20445;-76
2023/12/09 02:14:26;;;;;;;16.77;7.90;;;7.50;95.80;;;;;;5075872;28;20388;-77
2023/12/09 02:16:59;;;;;;;16.80;6.65;;;7.50;95.40;;;;;;5075633;28;20395;-77
2023/12/09 02:19:25;;;;;;;14.90;6.90;;;7.40;94.60;;;;;;5056084;28;20418;-77
2023/12/09 02:21:59;;;;;;;14.50;6.80;;;7.30;94.00;;;;;;5072747;28;20422;-76
2023/12/09 02:24:26;;;;;;;21.08;7.15;;;7.20;95.80;;;;;;5072765;28;20429;-75
2023/12/09 02:26:52;;;;;;;17.02;7.05;;;7.10;98.20;;;;;;5072819;28;20387;-77
2023/12/09 02:29:19;;;;;;;14.43;6.40;;;7.10;98.80;;;;;;5072458;28;20384;-77
2023/12/09 02:31:46;;;;;;;19.70;7.22;;;7.10;99.90;;;;;;5072964;28;20387;-76
2023/12/09 02:34:13;;;;;;;17.45;6.55;;;7.00;99.50;;;;;;5072752;28;20392;-77
2023/12/09 02:36:42;;;;;;;15.50;6.32;;;6.90;98.50;;;;;;5074528;28;20392;-76
2023/12/09 02:39:12;;;;;;;14.95;6.85;;;6.80;99.90;;;;;;5074104;28;20387;-75
2023/12/09 02:41:40;;;;;;;16.48;6.53;;;6.80;99.90;;;;;;5055545;28;20403;-77
2023/12/09 02:44:06;;;;;;;17.10;5.57;;;6.70;99.90;;;;;;5073420;28;20375;-77
2023/12/09 02:46:32;;;;;;;16.60;6.72;;;6.70;99.90;;;;;;5077926;28;20432;-77
2023/12/09 02:48:59;;;;;;;18.08;5.90;;;6.70;99.90;;;;;;5076420;28;20463;-76
2023/12/09 02:51:25;;;;;;;17.30;6.47;;;6.70;99.90;;;;;;5074497;28;20457;-77
2023/12/09 02:53:51;;;;;;;18.65;6.00;;;6.80;99.90;;;;;;5072992;28;20426;-77
2023/12/09 02:56:16;;;;;;;15.35;5.85;;;6.70;99.90;;;;;;5073358;28;20846;-76
2023/12/09 02:58:42;;;;;;;15.98;5.70;;;6.80;99.90;;;;;;5077365;28;20754;-76
2023/12/09 03:01:07;;;;;;;16.90;6.10;;;6.80;99.90;;;;;;5067651;28;20414;-76
2023/12/09 03:03:33;;;;;;;16.42;6.07;;;6.90;99.90;;;;;;5090137;28;20394;-76
2023/12/09 03:05:58;;;;;;;14.15;5.25;;;6.90;99.90;;;;;;5091789;28;20380;-77
2023/12/09 03:08:24;;;;;;;16.90;5.47;;;6.90;99.90;;;;;;5073584;28;20427;-76
2023/12/09 03:10:49;;;;;;;15.50;5.40;;;6.90;99.90;;;;;;5080098;28;20391;-75
2023/12/09 03:13:15;;;;;;;17.30;5.80;;;6.90;99.90;;;;;;5072596;28;20391;-79
2023/12/09 03:15:40;;;;;;;13.73;5.20;;;7.00;97.40;;;;;;5072237;28;20390;-76
2023/12/09 03:18:06;;;;;;;18.80;5.37;;;6.80;97.40;;;;;;5071722;28;20470;-77
2023/12/09 03:20:32;;;;;;;16.73;5.70;;;6.80;98.10;;;;;;5071722;28;20861;-77
2023/12/09 03:22:57;;;;;;;13.13;5.43;;;6.70;98.70;;;;;;5053664;28;20449;-76
2023/12/09 03:25:23;;;;;;;19.40;5.93;;;6.60;99.70;;;;;;5071757;28;20418;-76
2023/12/09 03:27:48;;;;;;;15.10;5.40;;;6.50;99.90;;;;;;5071555;28;20395;-77
2023/12/09 03:30:14;;;;;;;17.57;5.67;;;6.40;99.90;;;;;;5071745;28;20376;-76
2023/12/09 03:32:39;;;;;;;21.63;6.63;;;6.40;99.90;;;;;;5071597;28;20380;-77
2023/12/09 03:35:07;;;;;;;14.53;5.50;;;6.40;99.90;;;;;;5072036;28;20491;-77
2023/12/09 03:37:32;;;;;;;14.65;5.68;;;6.30;99.90;;;;;;5053802;28;20391;-75
2023/12/09 03:39:58;;;;;;;16.65;5.60;;;6.20;99.90;;;;;;5053240;28;20883;-77
2023/12/09 03:42:23;;;;;;;16.80;5.88;;;6.10;99.90;;;;;;5071121;28;20417;-76
2023/12/09 03:44:49;;;;;;;21.33;6.90;;;6.10;99.90;;;;;;5053617;28;20380;-76
2023/12/09 03:47:14;;;;;;;18.50;6.30;;;6.10;99.90;;;;;;5071512;28;20515;-76
2023/12/09 03:49:40;;;;;;;18.60;6.75;;;6.10;99.90;;;;;;5071055;28;20380;-77
2023/12/09 03:52:05;;;;;;;21.02;6.68;;;6.10;99.90;;;;;;5071175;28;20441;-76
2023/12/09 03:54:31;;;;;;;19.73;6.50;;;6.00;99.90;;;;;;5071232;28;20864;-76
2023/12/09 03:56:56;;;;;;;16.73;6.20;;;6.00;99.90;;;;;;5071281;28;20475;-76
2023/12/09 03:59:22;;;;;;;19.42;6.03;;;6.00;99.90;;;;;;5072604;28;20470;-77
2023/12/09 04:01:49;;;;;;;21.95;6.55;;;6.10;99.90;;;;;;5053632;28;20404;-77
2023/12/09 04:04:15;;;;;;;24.42;6.28;;;6.00;99.90;;;;;;5071559;28;20463;-76
2023/12/09 04:06:41;;;;;;;16.43;6.60;;;6.00;99.90;;;;;;5071328;28;20701;-76
2023/12/09 04:09:07;;;;;;;16.88;6.65;;;5.90;99.90;;;;;;5071178;28;20945;-76
2023/12/09 04:11:32;;;;;;;22.03;6.97;;;5.90;99.90;;;;;;5071160;28;20529;-75
2023/12/09 04:13:58;;;;;;;17.67;7.07;;;5.90;99.90;;;;;;5071037;28;20418;-77
2023/12/09 04:16:23;;;;;;;19.90;6.47;;;6.00;99.90;;;;;;5070980;28;20391;-77
2023/12/09 04:18:50;;;;;;;22.13;6.30;;;6.00;99.90;;;;;;5070487;28;20435;-77
2023/12/09 04:21:16;;;;;;;17.35;6.25;;;5.90;99.90;;;;;;5070941;28;20404;-76
2023/12/09 04:23:41;;;;;;;18.77;6.70;;;5.90;99.90;;;;;;5070631;28;20421;-76
2023/12/09 04:26:07;;;;;;;16.13;6.07;;;5.90;99.90;;;;;;5071093;28;20479;-76
2023/12/09 04:28:32;;;;;;;18.53;6.70;;;6.00;99.90;;;;;;5070959;28;20427;-75
2023/12/09 04:30:58;;;;;;;16.73;6.83;;;6.00;99.90;;;;;;5071015;28;20406;-75
2023/12/09 04:33:23;;;;;;;22.73;6.60;;;6.00;99.90;;;;;;5071332;28;20898;-76
2023/12/09 04:35:49;;;;;;;20.97;7.50;;;6.00;99.90;;;;;;5070862;28;20391;-77
2023/12/09 04:38:14;;;;;;;14.63;5.93;;;5.90;99.90;;;;;;5070914;28;20394;-76
2023/12/09 04:40:42;;;;;;;18.50;5.80;;;5.90;99.90;;;;;;5070791;28;20470;-76
2023/12/09 04:43:07;;;;;;;17.42;6.50;;;5.80;99.90;;;;;;5070874;28;20904;-76
2023/12/09 04:45:33;;;;;;;15.50;6.70;;;5.80;99.90;;;;;;5070524;28;20395;-76
2023/12/09 04:47:58;;;;;;;18.57;6.43;;;5.80;99.90;;;;;;5074618;28;20411;-77
2023/12/09 04:50:24;;;;;;;21.45;6.40;;;5.70;99.90;;;;;;5073751;28;20383;-77
2023/12/09 04:52:49;;;;;;;13.13;6.10;;;5.80;99.90;;;;;;5073107;28;20422;-76
2023/12/09 04:55:15;;;;;;;16.95;6.63;;;5.70;99.90;;;;;;5075947;28;20411;-77
2023/12/09 04:57:41;;;;;;;16.75;6.60;;;5.80;99.90;;;;;;5075630;28;20383;-77
2023/12/09 05:00:07;;;;;;;15.43;6.15;;;5.80;99.90;;;;;;5075354;28;20433;-76
2023/12/09 05:02:32;;;;;;;15.83;6.53;;;5.80;99.90;;;;;;5074709;28;20410;-77
2023/12/09 05:04:58;;;;;;;12.13;6.13;;;5.80;99.90;;;;;;5074674;28;20788;-77
2023/12/09 05:07:28;;;;;;;18.30;6.50;;;5.80;99.90;;;;;;5074878;28;20908;-77
2023/12/09 05:09:53;;;;;;;25.90;6.97;;;5.70;99.90;;;;;;5075089;28;20383;-75
2023/12/09 05:12:19;;;;;;;19.98;6.75;;;5.70;99.90;;;;;;5074986;28;20418;-76
2023/12/09 05:14:45;;;;;;;17.98;6.60;;;5.70;99.90;;;;;;5076283;28;20384;-77
2023/12/09 05:17:11;;;;;;;17.98;6.43;;;5.70;99.90;;;;;;5075151;28;20375;-75
2023/12/09 05:19:37;;;;;;;14.48;6.10;;;5.70;99.90;;;;;;5056724;28;20882;-77
2023/12/09 05:22:02;;;;;;;18.98;6.35;;;5.70;99.90;;;;;;5074088;28;20410;-76
2023/12/09 05:24:28;;;;;;;18.15;6.78;;;5.70;99.90;;;;;;5075101;28;20387;-77
2023/12/09 05:26:54;;;;;;;19.37;6.97;;;5.70;99.90;;;;;;5059261;28;20459;-76
2023/12/09 05:29:20;;;;;;;17.63;6.63;;;5.70;99.90;;;;;;5076361;28;20382;-77
2023/12/09 05:31:45;;;;;;;16.60;8.93;;;5.70;99.90;;;;;;5058850;28;20813;-77
2023/12/09 05:34:11;;;;;;;18.40;7.53;;;5.70;99.90;;;;;;5075750;28;20391;-77
2023/12/09 05:36:38;;;;;;;21.70;7.40;;;5.80;99.90;;;;;;5075256;28;20437;-77
2023/12/09 05:39:05;;;;;;;15.90;6.80;;;5.70;99.90;;;;;;5074228;28;20812;-75
2023/12/09 05:41:30;;;;;;;14.57;7.07;;;5.70;99.90;;;;;;5057346;28;20404;-77
2023/12/09 05:43:56;;;;;;;17.48;8.45;;;5.70;99.90;;;;;;5074416;28;20410;-76
2023/12/09 05:46:21;;;;;;;21.40;7.53;;;5.70;99.90;;;;;;5073840;28;20933;-77
2023/12/09 05:48:48;;;;;;;19.73;7.90;;;5.70;99.90;;;;;;5073857;28;20750;-77
2023/12/09 05:51:14;;;;;;;23.77;8.30;;;5.70;99.90;;;;;;5056461;28;20391;-76
2023/12/09 05:53:41;;;;;;;17.52;8.35;;;5.70;99.90;;;;;;5073508;28;20391;-77
2023/12/09 05:56:11;;;;;;;20.57;8.87;;;5.70;99.90;;;;;;5074066;28;20447;-76
2023/12/09 05:58:38;;;;;;;29.40;9.23;;;5.70;99.90;;;;;;5074845;28;20559;-77
2023/12/09 06:01:03;;;;;;;18.25;8.57;;;5.80;99.90;;;;;;5074019;28;20492;-76
2023/12/09 06:03:29;;;;;;;17.67;8.23;;;5.80;99.90;;;;;;5079894;28;20380;-74
2023/12/09 06:05:55;;;;;;;22.70;9.57;;;5.70;99.90;;;;;;5084247;28;20372;-77
2023/12/09 06:08:21;;;;;;;17.83;8.60;;;5.70;99.90;;;;;;5083622;28;20395;-75
2023/12/09 06:10:46;;;;;;;19.30;8.67;;;5.70;99.90;;;;;;5076361;28;20449;-77
2023/12/09 06:13:12;;;;;;;20.70;9.97;;;5.80;99.90;;;;;;5073572;28;20423;-77
2023/12/09 06:15:37;;;;;;;17.90;9.77;;;5.70;99.90;;;;;;5055557;28;20463;-76
2023/12/09 06:18:03;;;;;;;15.27;8.67;;;5.70;99.90;;;;;;5072765;28;20395;-77
2023/12/09 06:20:29;;;;;;;21.33;9.30;;;5.70;99.90;;;;;;5073628;28;20445;-76
2023/12/09 06:22:55;;;;;;;20.55;9.27;;;5.70;99.90;;;;;;5055052;28;20789;-77
2023/12/09 06:25:20;;;;;;;22.23;9.57;;;5.80;99.90;;;;;;5073285;28;20453;-76
2023/12/09 06:27:46;;;;;;;23.60;9.70;;;5.90;99.90;;;;;;5073422;28;20422;-75
2023/12/09 06:30:12;;;;;;;21.45;9.45;;;6.00;99.90;;;;;;5072962;28;20387;-76
2023/12/09 06:32:38;;;;;;;17.55;8.60;;;6.10;99.90;;;;;;5072530;28;20387;-77
2023/12/09 06:35:04;;;;;;;19.77;7.82;;;6.20;99.90;;;;;;5072540;28;20383;-76
2023/12/09 06:37:29;;;;;;;19.15;8.43;;;6.20;99.90;;;;;;5072362;28;20735;-77
2023/12/09 06:39:55;;;;;;;15.43;8.20;;;6.10;99.90;;;;;;5072444;28;20414;-76
2023/12/09 06:42:20;;;;;;;17.40;7.90;;;6.20;99.90;;;;;;5072320;28;20906;-76
2023/12/09 06:44:46;;;;;;;15.13;7.83;;;6.20;99.90;;;;;;5072259;28;20398;-76
2023/12/09 06:47:11;;;;;;;17.60;7.50;;;6.30;99.90;;;;;;5072096;28;20387;-76
2023/12/09 06:49:37;;;;;;;14.32;7.40;;;6.30;99.90;;;;;;5072154;28;20421;-76
2023/12/09 06:52:03;;;;;;;17.50;7.47;;;6.30;99.90;;;;;;5078372;28;20398;-75
2023/12/09 06:54:29;;;;;;;15.73;7.70;;;6.20;99.90;;;;;;5073369;28;20965;-76
2023/12/09 06:56:56;;;;;;;18.13;7.70;;;6.10;99.90;;;;;;5074116;28;20423;-76
2023/12/09 06:59:22;;;;;;;17.30;7.13;;;6.10;99.90;;;;;;5072515;28;20417;-75
2023/12/09 07:01:49;;;;;;;16.47;6.90;;;6.10;99.90;;;;;;5072415;28;20403;-77
2023/12/09 07:04:15;;;;;;;10.75;6.22;;;6.00;99.90;;;;;;5054167;28;20384;-76
2023/12/09 07:06:41;;;;;;;14.23;6.63;;;6.10;99.90;;;;;;5072326;28;20364;-76
2023/12/09 07:09:07;;;;;;;15.48;6.60;;;6.00;99.90;;;;;;5072206;28;20489;-77
2023/12/09 07:11:33;;;;;;;12.48;6.40;;;6.00;99.90;;;;;;5072309;28;20390;-77
2023/12/09 07:13:58;;;;;;;13.18;5.78;;;6.00;99.90;;;;;;5054444;28;20474;-78
2023/12/09 07:16:24;;;;;;;13.65;6.10;;;6.00;99.90;;;;;;5073841;28;20415;-78
2023/12/09 07:18:50;;;;;;;15.40;5.97;;;6.10;99.90;;;;;;5074906;28;20411;-77
2023/12/09 07:21:17;;;;;;;13.40;5.65;;;6.00;99.90;;;;;;5073019;28;20403;-76
2023/12/09 07:23:43;;;;;;;14.83;5.53;;;6.10;99.90;;;;;;5072722;28;20379;-77
2023/12/09 07:26:09;;;;;;;17.02;6.03;;;6.10;99.90;;;;;;5072289;28;20411;-77
2023/12/09 07:28:35;;;;;;;9.40;5.10;;;6.10;99.90;;;;;;5071847;28;20411;-77
2023/12/09 07:31:00;;;;;;;11.50;5.60;;;6.10;99.90;;;;;;5071849;28;20383;-77
2023/12/09 07:33:26;;;;;;;11.70;5.80;;;6.10;99.90;;;;;;5072164;28;20387;-76
2023/12/09 07:35:52;;;;;;;15.27;5.60;;;6.10;99.90;;;;;;5072279;28;20476;-77
2023/12/09 07:38:18;;;;;;;10.60;5.57;;;6.10;99.90;;;;;;5072108;28;20889;-77
2023/12/09 07:40:44;;;;;;;11.57;5.67;;;6.20;99.90;;;;;;5073401;28;20379;-76
2023/12/09 07:43:09;;;;;;;14.05;5.40;;;6.10;99.90;;;;;;5071994;28;20380;-77
2023/12/09 07:45:35;;;;;;;13.57;5.37;;;6.20;99.90;;;;;;5072873;28;20376;-76
2023/12/09 07:48:01;;;;;;;12.37;5.30;;;6.30;99.90;;;;;;5072113;28;20383;-77
2023/12/09 07:50:27;;;;;;;15.80;5.40;;;6.40;99.90;;;;;;5073013;28;20388;-76
2023/12/09 07:52:52;;;;;;;13.02;5.40;;;6.50;99.90;;;;;;5071717;28;20882;-77
2023/12/09 07:55:18;;;;;;;9.95;4.63;;;6.50;99.90;;;;;;5057054;28;20921;-78
2023/12/09 07:57:43;;;;;;;10.68;5.32;;;6.60;99.90;;;;;;5072433;28;20388;-77
2023/12/09 08:00:12;;;;;;;11.93;5.38;;;6.60;99.90;;;;;;5073176;28;20445;-77
2023/12/09 08:02:38;;;;;;;12.93;4.90;;;6.60;99.90;;;;;;5072405;28;20411;-76
2023/12/09 08:05:06;;;;;;;20.58;5.28;;;6.70;99.90;;;;;;5070829;28;21468;-77
2023/12/09 08:07:31;;;;;;;15.93;5.47;;;6.70;99.90;;;;;;5072701;28;20380;-78
2023/12/09 08:09:57;;;;;;;13.05;5.22;;;6.70;99.90;;;;;;5076172;28;20391;-77
2023/12/09 08:12:22;;;;;;;12.38;5.32;;;6.80;98.40;;;;;;5077188;28;20376;-76
2023/12/09 08:14:48;;;;;;;12.03;5.20;;;7.00;98.60;;;;;;5073527;28;20793;-76
2023/12/09 08:17:13;;;;;;;11.00;5.03;;;7.10;95.60;;;;;;5072308;28;20411;-76
2023/12/09 08:19:39;;;;;;;14.17;4.80;;;7.20;95.10;;;;;;5055518;28;20395;-78
2023/12/09 08:22:04;;;;;;;15.33;4.73;;;7.30;94.10;;;;;;5072466;28;20399;-76
2023/12/09 08:24:30;;;;;;;8.10;4.20;;;7.40;89.00;;;;;;5071429;28;20854;-77
2023/12/09 08:26:56;;;;;;;9.80;4.60;;;7.50;89.70;;;;;;5072856;28;20399;-76
2023/12/09 08:29:21;;;;;;;13.33;4.70;;;7.50;87.90;;;;;;5056798;28;20398;-76
2023/12/09 08:31:49;;;;;;;14.60;4.37;;;7.50;87.50;;;;;;5091641;28;20382;-77
2023/12/09 08:34:15;;;;;;;14.83;5.30;;;7.50;85.30;;;;;;5091602;28;20457;-76
2023/12/09 08:36:41;;;;;;;12.75;5.70;;;7.60;85.70;;;;;;5091499;28;20459;-77
2023/12/09 08:39:08;;;;;;;11.60;5.33;;;7.60;85.30;;;;;;5092514;28;20374;-76
2023/12/09 08:41:33;;;;;;;12.80;5.00;;;7.70;83.10;;;;;;5091526;28;20433;-77
2023/12/09 08:43:59;;;;;;;12.63;5.00;;;7.70;82.60;;;;;;5091688;28;20856;-77
2023/12/09 08:46:25;;;;;;;14.83;4.60;;;7.70;83.80;;;;;;5073350;28;20441;-75
2023/12/09 08:48:50;;;;;;;17.13;4.20;;;7.70;83.80;;;;;;5073807;28;20396;-76
2023/12/09 08:51:16;;;;;;;12.33;3.70;;;7.80;81.80;;;;;;5071378;28;20393;-75
2023/12/09 08:53:41;;;;;;;12.23;4.30;;;7.90;78.80;;;;;;5090890;28;20805;-77
2023/12/09 08:56:07;;;;;;;10.37;3.90;;;8.00;78.00;;;;;;5087189;28;20387;-77
2023/12/09 08:58:33;;;;;;;8.45;4.38;;;8.00;77.80;;;;;;5052123;28;20395;-77
2023/12/09 09:00:59;;;;;;;8.73;3.83;;;8.00;78.30;;;;;;5078148;28;20394;-75
2023/12/09 09:03:25;;;;;;;13.03;4.40;;;8.10;76.60;;;;;;5090995;28;20401;-77
2023/12/09 09:05:50;;;;;;;12.47;4.00;;;8.20;74.00;;;;;;5091625;28;20392;-76
2023/12/09 09:08:16;;;;;;;9.37;3.70;;;8.10;73.60;;;;;;5099223;28;20386;-75
2023/12/09 09:10:41;;;;;;;11.70;4.30;;;8.10;73.80;;;;;;5108176;28;20388;-74
2023/12/09 09:13:07;;;;;;;8.80;3.40;;;8.10;75.00;;;;;;5088726;28;20878;-75
2023/12/09 09:15:33;;;;;;;10.77;3.60;;;8.10;73.90;;;;;;5094928;28;20398;-76
2023/12/09 09:17:58;;;;;;;10.90;4.00;;;8.10;73.50;;;;;;5113344;28;20438;-76
2023/12/09 09:20:24;;;;;;;8.67;3.80;;;8.20;73.30;;;;;;5094570;28;20400;-76
2023/12/09 09:22:50;;;;;;;11.87;3.67;;;8.20;73.50;;;;;;5091781;28;20429;-76
2023/12/09 09:25:16;;;;;;;11.77;3.23;;;8.30;74.10;;;;;;5095995;28;20410;-77
2023/12/09 09:27:41;;;;;;;9.43;3.45;;;8.50;71.10;;;;;;5096249;28;20370;-77
2023/12/09 09:30:07;;;;;;;13.65;4.20;;;8.50;70.00;;;;;;5094621;28;20382;-76
2023/12/09 09:32:33;;;;;;;12.30;4.20;;;8.60;69.20;;;;;;5095088;28;20704;-77
2023/12/09 09:34:58;;;;;;;10.67;3.63;;;8.60;68.90;;;;;;5095541;28;20446;-76
2023/12/09 09:37:24;;;;;;;11.65;4.28;;;8.50;69.20;;;;;;5092168;28;20480;-76
2023/12/09 09:39:49;;;;;;;13.30;4.22;;;8.50;69.60;;;;;;5093051;28;20475;-75
2023/12/09 09:42:50;;;;;;;12.05;3.75;;;8.50;70.20;;;;;;5087937;28;20407;-76
2023/12/09 09:45:22;;;;;;;12.40;4.10;;;8.70;67.20;;;;;;5091062;28;20448;-77
2023/12/09 09:47:49;;;;;;;14.83;4.10;;;8.70;66.30;;;;;;5093132;28;20425;-76
2023/12/09 09:50:21;;;;;;;10.67;4.00;;;8.70;65.90;;;;;;5085846;28;20372;-75
2023/12/09 09:52:47;;;;;;;14.45;4.00;;;8.70;66.40;;;;;;5056162;28;20893;-76
2023/12/09 09:55:15;;;;;;;11.38;4.25;;;8.80;65.10;;;;;;5085275;28;20907;-77
2023/12/09 09:57:42;;;;;;;14.27;4.63;;;8.90;65.80;;;;;;5092863;28;20390;-77
2023/12/09 10:00:15;;;;;;;12.18;4.10;;;8.90;64.40;;;;;;5093270;28;20389;-77
2023/12/09 10:02:43;;;;;;;16.70;4.10;;;8.90;64.10;;;;;;5091433;28;20805;-76
2023/12/09 10:05:10;;;;;;;14.48;4.25;;;8.90;63.20;;;;;;5074225;28;20866;-76
2023/12/09 10:07:36;;;;;;;14.57;4.22;;;9.00;63.60;;;;;;5092589;28;20413;-77
2023/12/09 10:10:03;;;;;;;13.25;4.28;;;9.00;61.90;;;;;;5092407;28;20485;-76
2023/12/09 10:12:29;;;;;;;11.10;4.30;;;9.00;61.00;;;;;;5075311;28;20391;-77
2023/12/09 10:14:56;;;;;;;15.38;3.80;;;9.10;60.70;;;;;;5073034;28;20402;-76
2023/12/09 10:17:22;;;;;;;20.80;4.53;;;9.00;62.90;;;;;;5053823;28;20994;-77
2023/12/09 10:19:48;;;;;;;15.30;4.10;;;9.00;62.90;;;;;;5085158;28;20800;-77
2023/12/09 10:22:14;;;;;;;15.33;4.00;;;9.00;62.90;;;;;;5087158;28;20405;-77
2023/12/09 10:24:40;;;;;;;13.35;3.65;;;9.00;61.90;;;;;;5078013;28;20485;-79
2023/12/09 10:27:06;;;;;;;15.23;4.60;;;9.10;61.10;;;;;;5087759;28;20404;-77
2023/12/09 10:29:32;;;;;;;16.75;4.00;;;9.20;60.70;;;;;;5071165;28;20481;-77
2023/12/09 10:32:01;;;;;;;11.98;4.47;;;9.30;60.60;;;;;;5088226;28;20447;-76
2023/12/09 10:34:27;;;;;;;14.63;4.35;;;9.40;59.40;;;;;;5091862;28;20389;-78
2023/12/09 10:36:52;;;;;;;16.55;4.90;;;9.40;58.80;;;;;;5085458;28;20399;-76
2023/12/09 10:39:19;;;;;;;17.27;4.80;;;9.60;59.10;;;;;;5088028;28;20396;-76
2023/12/09 10:41:45;;;;;;;15.43;4.63;;;9.60;58.10;;;;;;5080871;28;20762;-77
2023/12/09 10:44:11;;;;;;;18.40;3.72;;;9.60;57.70;;;;;;5053042;28;20399;-76
2023/12/09 10:46:36;;;;;;;11.68;4.30;;;9.80;56.40;;;;;;5072120;28;20731;-77
2023/12/09 10:49:02;;;;;;;13.55;3.63;;;9.80;56.80;;;;;;5083113;28;20391;-76
2023/12/09 10:51:28;;;;;;;12.67;3.90;;;9.80;55.30;;;;;;5062155;28;20395;-78
2023/12/09 10:53:53;;;;;;;14.07;3.70;;;9.90;54.80;;;;;;5080850;28;20399;-76
2023/12/09 10:56:20;;;;;;;17.10;4.50;;;9.80;55.10;;;;;;5072028;28;20393;-77
2023/12/09 10:58:46;;;;;;;14.07;4.10;;;9.80;55.80;;;;;;5076302;28;20851;-76
2023/12/09 11:01:13;;;;;;;14.70;4.07;;;9.80;55.40;;;;;;5083546;28;20957;-77
2023/12/09 11:03:39;;;;;;;15.20;4.13;;;9.80;55.90;;;;;;5070806;28;20437;-76
2023/12/09 11:06:06;;;;;;;15.17;4.73;;;9.80;55.40;;;;;;5076889;28;20396;-77
2023/12/09 11:08:34;;;;;;;17.30;4.55;;;9.80;55.90;;;;;;5070423;28;20410;-77
2023/12/09 11:11:04;;;;;;;9.43;3.40;;;9.70;57.00;;;;;;5070822;28;20748;-76
2023/12/09 11:13:32;;;;;;;12.43;3.60;;;9.70;57.10;;;;;;5070572;28;20955;-77
2023/12/09 11:16:11;;;;;;;15.38;4.30;;;9.70;56.00;;;;;;5070738;28;20388;-76
2023/12/09 11:18:46;;;;;;;12.10;4.40;;;9.70;57.20;;;;;;5072108;28;20396;-78
2023/12/09 11:21:15;;;;;;;18.92;4.72;;;9.70;57.10;;;;;;5090541;28;20409;-76
2023/12/09 11:23:45;;;;;;;11.77;4.10;;;9.60;57.00;;;;;;5091683;28;20432;-77
2023/12/09 11:26:15;;;;;;;14.53;4.87;;;9.60;58.60;;;;;;5091096;28;20461;-77
2023/12/09 11:28:57;;;;;;;16.83;4.35;;;9.70;58.60;;;;;;5080784;28;20388;-75
2023/12/09 11:31:30;;;;;;;14.75;4.13;;;9.80;57.10;;;;;;5071045;28;20817;-77
2023/12/09 11:33:56;;;;;;;21.55;4.45;;;9.80;57.00;;;;;;5053040;28;20442;-76
2023/12/09 11:36:23;;;;;;;13.75;4.00;;;9.80;57.60;;;;;;5073749;28;20452;-76
2023/12/09 11:38:49;;;;;;;16.15;4.35;;;9.90;56.40;;;;;;5086430;28;20496;-76
2023/12/09 11:41:14;;;;;;;18.27;4.18;;;9.80;57.50;;;;;;5095313;28;20881;-75
2023/12/09 11:43:40;;;;;;;14.95;4.60;;;9.80;57.10;;;;;;5077375;28;20392;-76
2023/12/09 11:46:06;;;;;;;8.90;3.50;;;9.80;56.70;;;;;;5090112;28;20881;-76
2023/12/09 11:48:32;;;;;;;17.60;3.90;;;9.80;57.10;;;;;;5087043;28;20383;-76
2023/12/09 11:51:03;;;;;;;14.63;4.07;;;9.90;57.30;;;;;;5074101;28;20540;-76
2023/12/09 11:53:28;;;;;;;17.50;4.72;;;10.00;58.40;;;;;;5071938;28;20420;-76
2023/12/09 11:55:55;;;;;;;17.95;4.55;;;10.00;58.30;;;;;;5056213;28;20750;-76
2023/12/09 11:58:20;;;;;;;19.10;4.95;;;10.00;59.30;;;;;;5070834;28;20388;-76
2023/12/09 12:00:46;;;;;;;17.40;5.10;;;10.00;60.50;;;;;;5088670;28;20413;-76
2023/12/09 12:03:12;;;;;;;14.97;4.80;;;10.10;59.50;;;;;;5091477;28;20428;-77
2023/12/09 12:05:37;;;;;;;21.63;5.18;;;10.10;60.50;;;;;;5090418;28;20390;-76
2023/12/09 12:08:04;;;;;;;17.23;4.75;;;10.10;59.80;;;;;;5071820;28;20393;-77
2023/12/09 12:10:29;;;;;;;17.45;4.45;;;10.30;59.20;;;;;;5090100;28;20378;-75
2023/12/09 12:12:55;;;;;;;13.82;4.53;;;10.40;60.10;;;;;;5092072;28;20718;-76
2023/12/09 12:15:21;;;;;;;18.42;5.65;;;10.50;58.10;;;;;;5081324;28;20448;-77
2023/12/09 12:17:48;;;;;;;16.93;4.93;;;10.60;57.90;;;;;;5051426;28;20537;-76
2023/12/09 12:20:13;;;;;;;15.30;4.88;;;10.70;56.60;;;;;;5069104;28;20384;-76
2023/12/09 12:22:40;;;;;;;16.38;4.15;;;10.80;56.50;;;;;;5069612;28;20404;-76
2023/12/09 12:25:08;;;;;;;15.85;4.22;;;10.80;54.70;;;;;;5071185;28;20816;-77
2023/12/09 12:27:34;;;;;;;12.73;4.87;;;10.70;55.70;;;;;;5074792;28;20400;-76
2023/12/09 12:30:00;;;;;;;14.13;4.57;;;10.60;56.30;;;;;;5074039;28;20425;-76
2023/12/09 12:32:26;;;;;;;15.60;4.13;;;10.70;56.00;;;;;;5072927;28;20396;-76
2023/12/09 12:34:51;;;;;;;13.00;3.50;;;10.90;55.00;;;;;;5073671;28;20448;-77
2023/12/09 12:37:19;;;;;;;14.97;3.90;;;11.10;55.00;;;;;;5080561;28;20887;-77
2023/12/09 12:39:45;;;;;;;13.93;3.70;;;11.20;51.80;;;;;;5091149;28;20698;-78